Time;durP1;ratioP1;P1;durP2;ratioP2;P2;SDS_P1;SDS_P2;PMS_P1;PMS_P2;Temp;Humidity;BMP_temperature;BMP_pressure;BME280_temperature;BME280_humidity;BME280_pressure;Samples;Min_cycle;Max_cycle;Signal;HPM_P1;HPM_P2
2022/03/11 00:01:16;;;;;;;21.77;10.75;;;;;;;-144.65;100.00;64500.88;5083701;28;20020;-77
2022/03/11 00:03:41;;;;;;;20.05;12.38;;;;;;;-144.65;100.00;64500.88;5073420;28;20028;-77
2022/03/11 00:06:07;;;;;;;21.63;11.13;;;;;;;-144.65;100.00;64500.88;5086259;28;20020;-77
2022/03/11 00:08:32;;;;;;;22.85;10.82;;;;;;;-144.65;100.00;64500.88;5077677;28;20021;-77
2022/03/11 00:10:58;;;;;;;22.92;11.32;;;;;;;-144.65;100.00;64500.88;5082803;28;20024;-77
2022/03/11 00:13:24;;;;;;;16.92;10.27;;;;;;;-144.65;100.00;64500.88;5084964;28;20028;-77
2022/03/11 00:15:50;;;;;;;19.88;10.48;;;;;;;-144.65;100.00;64500.88;5093856;28;20444;-78
2022/03/11 00:18:16;;;;;;;21.65;11.65;;;;;;;-144.65;100.00;64500.88;5085968;28;20101;-78
2022/03/11 00:20:42;;;;;;;22.50;11.05;;;;;;;-144.65;100.00;64500.88;5095917;28;20051;-77
2022/03/11 00:23:07;;;;;;;20.08;10.50;;;;;;;-144.65;100.00;64500.88;5091289;28;20119;-77
2022/03/11 00:25:33;;;;;;;19.65;10.63;;;;;;;-144.65;100.00;64500.88;5093438;28;20035;-79
2022/03/11 00:28:01;;;;;;;20.95;11.38;;;;;;;-144.65;100.00;64500.88;5097867;28;20028;-84
2022/03/11 00:30:28;;;;;;;17.77;11.05;;;;;;;-144.65;100.00;64500.88;5099658;28;20037;-78
2022/03/11 00:32:54;;;;;;;22.02;11.60;;;;;;;-144.65;100.00;64500.88;5091147;28;20476;-78
2022/03/11 00:35:20;;;;;;;20.30;11.38;;;;;;;-144.65;100.00;64500.88;5098418;28;20028;-78
2022/03/11 00:37:47;;;;;;;20.98;11.63;;;;;;;-144.65;100.00;64500.88;5085311;28;20028;-79
2022/03/11 00:40:13;;;;;;;28.00;13.35;;;;;;;-144.65;100.00;64500.88;5093585;28;20645;-83
2022/03/11 00:42:41;;;;;;;20.77;11.15;;;;;;;-144.65;100.00;64500.88;5098366;28;20035;-81
2022/03/11 00:45:07;;;;;;;17.60;10.13;;;;;;;-144.65;100.00;64500.88;5086734;28;20038;-77
2022/03/11 00:47:33;;;;;;;19.63;11.40;;;;;;;-144.65;100.00;64500.88;5085604;28;20623;-76
2022/03/11 00:49:58;;;;;;;20.45;11.43;;;;;;;-144.65;100.00;64500.88;5092695;28;20056;-76
2022/03/11 00:52:23;;;;;;;20.20;10.75;;;;;;;-144.65;100.00;64500.88;5082728;28;20028;-78
2022/03/11 00:54:49;;;;;;;19.48;10.77;;;;;;;-144.65;100.00;64500.88;5092839;28;20131;-78
2022/03/11 00:57:16;;;;;;;24.40;11.30;;;;;;;-144.65;100.00;64500.88;5085078;28;20097;-77
2022/03/11 00:59:42;;;;;;;27.60;11.55;;;;;;;-144.65;100.00;64500.88;5082064;28;20441;-77
2022/03/11 01:02:07;;;;;;;21.95;11.13;;;;;;;-144.65;100.00;64500.88;5091003;28;20071;-77
2022/03/11 01:04:32;;;;;;;28.30;11.88;;;;;;;-144.65;100.00;64500.88;5078013;28;20024;-78
2022/03/11 01:06:58;;;;;;;23.25;12.02;;;;;;;-144.65;100.00;64500.88;5089120;28;20094;-79
2022/03/11 01:09:23;;;;;;;21.30;12.07;;;;;;;-144.65;100.00;64500.88;5084854;28;20461;-77
2022/03/11 01:11:49;;;;;;;20.67;11.30;;;;;;;-144.65;100.00;64500.88;5087002;28;20370;-77
2022/03/11 01:14:15;;;;;;;20.02;11.57;;;;;;;-144.65;100.00;64500.88;5076423;28;20044;-78
2022/03/11 01:16:40;;;;;;;20.40;10.63;;;;;;;-144.65;100.00;64500.88;5078170;28;20012;-76
2022/03/11 01:19:08;;;;;;;18.15;11.02;;;;;;;-144.65;100.00;64500.88;5085505;28;20078;-76
2022/03/11 01:21:34;;;;;;;18.88;11.18;;;;;;;-144.65;100.00;64500.88;5085792;28;20570;-77
2022/03/11 01:23:59;;;;;;;19.92;10.95;;;;;;;-144.65;100.00;64500.88;5077852;28;20029;-77
2022/03/11 01:26:25;;;;;;;16.38;9.52;;;;;;;-144.65;100.00;64500.88;5090271;28;20055;-77
2022/03/11 01:28:51;;;;;;;19.98;11.88;;;;;;;-144.65;100.00;64500.88;5079066;28;20047;-76
2022/03/11 01:31:17;;;;;;;21.35;10.00;;;;;;;-144.65;100.00;64500.88;5092013;28;21047;-76
2022/03/11 01:33:44;;;;;;;17.38;9.95;;;;;;;-144.65;100.00;64500.88;5080912;28;20503;-76
2022/03/11 01:36:11;;;;;;;20.38;10.73;;;;;;;-144.65;100.00;64500.88;5092751;28;20402;-76
2022/03/11 01:38:37;;;;;;;18.08;9.90;;;;;;;-144.65;100.00;64500.88;5081001;28;20036;-77
2022/03/11 01:41:03;;;;;;;19.05;10.55;;;;;;;-144.65;100.00;64500.88;5085686;28;20489;-75
2022/03/11 01:43:28;;;;;;;18.67;10.55;;;;;;;-144.65;100.00;64500.88;5085092;28;20039;-77
2022/03/11 01:45:54;;;;;;;22.77;10.43;;;;;;;-144.65;100.00;64500.88;5079317;28;20064;-77
2022/03/11 01:48:20;;;;;;;17.95;10.50;;;;;;;-144.65;100.00;64500.88;5089875;28;20020;-76
2022/03/11 01:50:45;;;;;;;18.40;11.07;;;;;;;-144.65;100.00;64500.88;5078355;28;20020;-74
2022/03/11 01:53:12;;;;;;;21.98;11.32;;;;;;;-144.65;100.00;64500.88;5084277;28;20098;-76
2022/03/11 01:55:38;;;;;;;18.67;10.15;;;;;;;-144.65;100.00;64500.88;5086003;28;20024;-76
2022/03/11 01:58:05;;;;;;;25.38;9.65;;;;;;;-144.65;100.00;64500.88;5092672;28;20020;-75
2022/03/11 02:00:31;;;;;;;23.33;10.35;;;;;;;-144.65;100.00;64500.88;5089804;28;20008;-76
2022/03/11 02:02:57;;;;;;;20.20;10.55;;;;;;;-144.65;100.00;64500.88;5082791;28;21376;-77
2022/03/11 02:05:23;;;;;;;21.20;10.32;;;;;;;-144.65;100.00;64500.88;5082132;28;20028;-76
2022/03/11 02:07:49;;;;;;;20.25;10.93;;;;;;;-144.65;100.00;64500.88;5086640;28;20028;-76
2022/03/11 02:10:16;;;;;;;16.55;9.65;;;;;;;-144.65;100.00;64500.88;5075521;28;20028;-76
2022/03/11 02:12:42;;;;;;;16.85;9.55;;;;;;;-144.65;100.00;64500.88;5084150;28;20496;-77
2022/03/11 02:15:09;;;;;;;18.42;9.35;;;;;;;-144.65;100.00;64500.88;5083479;28;20056;-76
2022/03/11 02:17:35;;;;;;;17.48;9.63;;;;;;;-144.65;100.00;64500.88;5084223;28;20373;-78
2022/03/11 02:20:00;;;;;;;17.15;8.82;;;;;;;-144.65;100.00;64500.88;5074662;28;20023;-77
2022/03/11 02:22:27;;;;;;;16.85;9.93;;;;;;;-144.65;100.00;64500.88;5089677;28;20474;-76
2022/03/11 02:24:54;;;;;;;16.52;9.75;;;;;;;-144.65;100.00;64500.88;5078026;28;20028;-77
2022/03/11 02:27:21;;;;;;;14.70;8.48;;;;;;;-144.65;100.00;64500.88;5081076;28;20389;-76
2022/03/11 02:29:46;;;;;;;18.52;9.07;;;;;;;-144.65;100.00;64500.88;5085217;28;20490;-76
2022/03/11 02:32:11;;;;;;;17.17;9.50;;;;;;;-144.65;100.00;64500.88;5074696;28;20058;-76
2022/03/11 02:34:38;;;;;;;15.18;8.52;;;;;;;-144.65;100.00;64500.88;5087083;28;20024;-77
2022/03/11 02:37:05;;;;;;;17.52;9.20;;;;;;;-144.65;100.00;64500.88;5079851;28;20024;-75
2022/03/11 02:39:31;;;;;;;18.17;9.35;;;;;;;-144.65;100.00;64500.88;5078163;28;20036;-76
2022/03/11 02:41:57;;;;;;;18.85;8.80;;;;;;;-144.65;100.00;64500.88;5086672;28;20813;-76
2022/03/11 02:44:23;;;;;;;15.98;8.20;;;;;;;-144.65;100.00;64500.88;5074612;28;20188;-76
2022/03/11 02:46:49;;;;;;;17.67;8.98;;;;;;;-144.65;100.00;64500.88;5085130;28;20161;-76
2022/03/11 02:49:14;;;;;;;15.43;8.25;;;;;;;-144.65;100.00;64500.88;5081109;28;20427;-76
2022/03/11 02:51:40;;;;;;;16.80;8.50;;;;;;;-144.65;100.00;64500.88;5079039;28;20028;-77
2022/03/11 02:54:05;;;;;;;16.65;8.70;;;;;;;-144.65;100.00;64500.88;5088397;28;20082;-76
2022/03/11 02:56:31;;;;;;;16.35;8.15;;;;;;;-144.65;100.00;64500.88;5076186;28;20035;-77
2022/03/11 02:58:57;;;;;;;15.55;8.02;;;;;;;-144.65;100.00;64500.88;5083276;28;20032;-76
2022/03/11 03:01:22;;;;;;;17.33;9.25;;;;;;;-144.65;100.00;64500.88;5080390;28;20020;-74
2022/03/11 03:03:48;;;;;;;14.77;8.65;;;;;;;-144.65;100.00;64500.88;5090883;28;20028;-76
2022/03/11 03:06:14;;;;;;;18.40;8.75;;;;;;;-144.65;100.00;64500.88;5074193;28;20473;-76
2022/03/11 03:08:40;;;;;;;14.38;7.38;;;;;;;-144.65;100.00;64500.88;5084240;28;20157;-77
2022/03/11 03:11:05;;;;;;;21.80;9.13;;;;;;;-144.65;100.00;64500.88;5077163;28;20081;-76
2022/03/11 03:13:30;;;;;;;18.95;9.20;;;;;;;-144.65;100.00;64500.88;5081890;28;20028;-77
2022/03/11 03:15:56;;;;;;;17.65;8.70;;;;;;;-144.65;100.00;64500.88;5074228;28;20477;-76
2022/03/11 03:18:22;;;;;;;16.38;9.45;;;;;;;-144.65;100.00;64500.88;5087178;28;20032;-76
2022/03/11 03:20:47;;;;;;;16.23;8.93;;;;;;;-144.65;100.00;64500.88;5074814;28;20035;-74
2022/03/11 03:23:13;;;;;;;19.13;9.65;;;;;;;-144.65;100.00;64500.88;5090540;28;20089;-77
2022/03/11 03:25:38;;;;;;;16.60;9.38;;;;;;;-144.65;100.00;64500.88;5077417;28;20389;-76
2022/03/11 03:28:04;;;;;;;16.85;8.82;;;;;;;-144.65;100.00;64500.88;5086892;28;20071;-77
2022/03/11 03:30:29;;;;;;;17.13;9.00;;;;;;;-144.65;100.00;64500.88;5073321;28;20020;-76
2022/03/11 03:32:55;;;;;;;17.55;10.00;;;;;;;-144.65;100.00;64500.88;5082254;28;20033;-76
2022/03/11 03:35:20;;;;;;;19.88;9.68;;;;;;;-144.65;100.00;64500.88;5078468;28;20028;-75
2022/03/11 03:37:46;;;;;;;17.92;9.68;;;;;;;-144.65;100.00;64500.88;5076569;28;20397;-79
2022/03/11 03:40:11;;;;;;;17.10;9.57;;;;;;;-144.65;100.00;64500.88;5085655;28;20032;-76
2022/03/11 03:42:37;;;;;;;18.73;10.95;;;;;;;-144.65;100.00;64500.88;5073443;28;20032;-78
2022/03/11 03:45:06;;;;;;;17.45;10.07;;;;;;;-144.65;100.00;64500.88;5090434;28;20039;-77
2022/03/11 03:47:31;;;;;;;19.95;10.18;;;;;;;-144.65;100.00;64500.88;5079540;28;20563;-76
2022/03/11 03:49:57;;;;;;;21.90;10.52;;;;;;;-144.65;100.00;64500.88;5088129;28;20024;-77
2022/03/11 03:52:22;;;;;;;21.67;10.13;;;;;;;-144.65;100.00;64500.88;5074427;28;20642;-76
2022/03/11 03:54:48;;;;;;;17.92;9.40;;;;;;;-144.65;100.00;64500.88;5074704;28;20052;-78
2022/03/11 03:57:13;;;;;;;18.83;10.57;;;;;;;-144.65;100.00;64500.88;5089982;28;20569;-76
2022/03/11 03:59:39;;;;;;;21.00;10.80;;;;;;;-144.65;100.00;64500.88;5078413;28;20020;-76
2022/03/11 04:02:05;;;;;;;20.63;9.98;;;;;;;-144.65;100.00;64500.88;5090800;28;20052;-75
2022/03/11 04:04:30;;;;;;;20.88;10.75;;;;;;;-144.65;100.00;64500.88;5088888;28;20028;-76
2022/03/11 04:06:55;;;;;;;26.27;10.90;;;;;;;-144.65;100.00;64500.88;5087350;28;20393;-77
2022/03/11 04:09:21;;;;;;;16.92;9.10;;;;;;;-144.65;100.00;64500.88;5084001;28;20753;-77
2022/03/11 04:11:46;;;;;;;18.27;9.70;;;;;;;-144.65;100.00;64500.88;5091371;28;20051;-77
2022/03/11 04:14:12;;;;;;;24.13;9.73;;;;;;;-144.65;100.00;64500.88;5091720;28;20508;-77
2022/03/11 04:16:37;;;;;;;22.98;9.95;;;;;;;-144.65;100.00;64500.88;5079157;28;20036;-75
2022/03/11 04:19:03;;;;;;;18.25;10.10;;;;;;;-144.65;100.00;64500.88;5087519;28;20543;-76
2022/03/11 04:21:28;;;;;;;22.63;10.63;;;;;;;-144.65;100.00;64500.88;5086431;28;20497;-76
2022/03/11 04:23:54;;;;;;;19.63;10.38;;;;;;;-144.65;100.00;64500.88;5095240;28;20040;-76
2022/03/11 04:26:20;;;;;;;18.65;10.25;;;;;;;-144.65;100.00;64500.88;5083048;28;20384;-76
2022/03/11 04:28:45;;;;;;;18.27;9.15;;;;;;;-144.65;100.00;64500.88;5102030;28;20020;-76
2022/03/11 04:31:11;;;;;;;18.10;9.07;;;;;;;-144.65;100.00;64500.88;5094033;28;20512;-75
2022/03/11 04:33:38;;;;;;;18.88;9.48;;;;;;;-144.65;100.00;64500.88;5073849;28;20131;-75
2022/03/11 04:36:04;;;;;;;18.20;9.65;;;;;;;-144.65;100.00;64500.88;5073513;28;20020;-76
2022/03/11 04:38:33;;;;;;;17.08;8.52;;;;;;;-144.65;100.00;64500.88;5073330;28;20029;-76
2022/03/11 04:41:00;;;;;;;18.17;8.55;;;;;;;-144.65;100.00;64500.88;5072685;28;20552;-76
2022/03/11 04:43:25;;;;;;;18.10;8.55;;;;;;;-144.65;100.00;64500.88;5073363;28;20040;-76
2022/03/11 04:45:51;;;;;;;15.63;9.00;;;;;;;-144.65;100.00;64500.88;5073530;28;20032;-75
2022/03/11 04:48:17;;;;;;;17.08;8.32;;;;;;;-144.65;100.00;64500.88;5075838;28;20502;-77
2022/03/11 04:50:42;;;;;;;19.80;8.57;;;;;;;-144.65;100.00;64500.88;5073663;28;20031;-76
2022/03/11 04:53:08;;;;;;;16.33;8.68;;;;;;;-144.65;100.00;64500.88;5072043;28;20045;-76
2022/03/11 04:55:34;;;;;;;17.48;7.93;;;;;;;-144.65;100.00;64500.88;5073640;28;20047;-77
2022/03/11 04:57:59;;;;;;;17.23;8.07;;;;;;;-144.65;100.00;64500.88;5072764;28;20025;-76
2022/03/11 05:00:25;;;;;;;16.30;7.97;;;;;;;-144.65;100.00;64500.88;5072465;28;20043;-77
2022/03/11 05:02:52;;;;;;;15.75;7.78;;;;;;;-144.65;100.00;64500.88;5081380;28;20461;-77
2022/03/11 05:05:18;;;;;;;14.23;7.93;;;;;;;-144.65;100.00;64500.88;5091980;28;20035;-76
2022/03/11 05:07:43;;;;;;;20.35;8.68;;;;;;;-144.65;100.00;64500.88;5077799;28;20111;-75
2022/03/11 05:10:11;;;;;;;13.60;7.82;;;;;;;-144.65;100.00;64500.88;5071095;28;20022;-75
2022/03/11 05:12:40;;;;;;;16.83;8.07;;;;;;;-144.65;100.00;64500.88;5073234;28;20027;-76
2022/03/11 05:15:07;;;;;;;15.02;8.23;;;;;;;-144.65;100.00;64500.88;5071399;28;20038;-75
2022/03/11 05:17:32;;;;;;;21.27;8.35;;;;;;;-144.65;100.00;64500.88;5071512;28;20410;-74
2022/03/11 05:19:58;;;;;;;14.95;6.63;;;;;;;-144.65;100.00;64500.88;5086987;28;20022;-75
2022/03/11 05:22:23;;;;;;;18.60;8.80;;;;;;;-144.65;100.00;64500.88;5092522;28;20653;-75
2022/03/11 05:24:49;;;;;;;19.10;7.75;;;;;;;-144.65;100.00;64500.88;5092760;28;20039;-75
2022/03/11 05:27:15;;;;;;;16.92;8.40;;;;;;;-144.65;100.00;64500.88;5092647;28;20080;-75
2022/03/11 05:29:40;;;;;;;17.23;8.30;;;;;;;-144.65;100.00;64500.88;5092621;28;20055;-75
2022/03/11 05:32:07;;;;;;;22.52;9.88;;;;;;;-144.65;100.00;64500.88;5095002;28;20031;-75
2022/03/11 05:34:34;;;;;;;20.58;9.73;;;;;;;-144.65;100.00;64500.88;5092475;28;20574;-76
2022/03/11 05:36:59;;;;;;;20.10;8.60;;;;;;;-144.65;100.00;64500.88;5091674;28;20020;-77
2022/03/11 05:39:25;;;;;;;28.20;13.38;;;;;;;-144.65;100.00;64500.88;5092585;28;20031;-75
2022/03/11 05:41:50;;;;;;;22.05;10.18;;;;;;;-144.65;100.00;64500.88;5072452;28;20016;-75
2022/03/11 05:44:33;;;;;;;33.13;11.25;;;;;;;-144.65;100.00;64500.88;5072996;28;20024;-76
2022/03/11 05:46:58;;;;;;;21.48;8.13;;;;;;;-144.65;100.00;64500.88;5053835;28;20043;-75
2022/03/11 05:49:25;;;;;;;16.88;9.85;;;;;;;-144.65;100.00;64500.88;5082176;28;20021;-75
2022/03/11 05:51:51;;;;;;;13.55;6.65;;;;;;;-144.65;100.00;64500.88;5081461;28;20028;-76
2022/03/11 05:54:17;;;;;;;18.33;8.52;;;;;;;-144.65;100.00;64500.88;5081410;28;20040;-76
2022/03/11 05:56:43;;;;;;;23.73;8.63;;;;;;;-144.65;100.00;64500.88;5085964;28;20048;-76
2022/03/11 05:59:09;;;;;;;17.80;7.85;;;;;;;-144.65;100.00;64500.88;5092694;28;20465;-74
2022/03/11 06:01:35;;;;;;;18.05;8.38;;;;;;;-144.65;100.00;64500.88;5097712;28;20035;-77
2022/03/11 06:04:04;;;;;;;13.38;7.40;;;;;;;-144.65;100.00;64500.88;5093741;28;20038;-75
2022/03/11 06:06:30;;;;;;;14.15;7.80;;;;;;;-144.65;100.00;64500.88;5084556;28;20026;-75
2022/03/11 06:08:56;;;;;;;16.67;7.70;;;;;;;-144.65;100.00;64500.88;5082097;28;20024;-76
2022/03/11 06:11:21;;;;;;;20.25;9.00;;;;;;;-144.65;100.00;64500.88;5084335;28;20032;-76
2022/03/11 06:13:47;;;;;;;13.52;7.38;;;;;;;-144.65;100.00;64500.88;5078584;28;20035;-75
2022/03/11 06:16:12;;;;;;;26.17;7.90;;;;;;;-144.65;100.00;64500.88;5078659;28;20466;-76
2022/03/11 06:18:37;;;;;;;15.30;7.22;;;;;;;-144.65;100.00;64500.88;5082549;28;20028;-75
2022/03/11 06:21:03;;;;;;;13.57;6.13;;;;;;;-144.65;100.00;64500.88;5079786;28;20025;-76
2022/03/11 06:23:30;;;;;;;31.38;13.90;;;;;;;-144.65;100.00;64500.88;5082790;28;20099;-75
2022/03/11 06:25:56;;;;;;;17.23;7.07;;;;;;;-144.65;100.00;64500.88;5079361;28;20044;-74
2022/03/11 06:28:21;;;;;;;16.15;8.02;;;;;;;-144.65;100.00;64500.88;5090273;28;20064;-74
2022/03/11 06:30:47;;;;;;;39.80;19.30;;;;;;;-144.65;100.00;64500.88;5071676;28;20531;-74
2022/03/11 06:33:13;;;;;;;14.10;7.55;;;;;;;-144.65;100.00;64500.88;5086919;28;20024;-75
2022/03/11 06:35:39;;;;;;;15.70;7.30;;;;;;;-144.65;100.00;64500.88;5087072;28;20024;-76
2022/03/11 06:38:04;;;;;;;16.35;7.65;;;;;;;-144.65;100.00;64500.88;5090137;28;20020;-75
2022/03/11 06:40:30;;;;;;;18.30;8.07;;;;;;;-144.65;100.00;64500.88;5073935;28;20027;-75
2022/03/11 06:42:56;;;;;;;14.68;6.85;;;;;;;-144.65;100.00;64500.88;5089422;28;20024;-75
2022/03/11 06:45:22;;;;;;;11.73;7.05;;;;;;;-144.65;100.00;64500.88;5089481;28;20074;-76
2022/03/11 06:47:48;;;;;;;19.45;8.30;;;;;;;-144.65;100.00;64500.88;5089636;28;20051;-76
2022/03/11 06:50:15;;;;;;;20.80;10.05;;;;;;;-144.65;100.00;64500.88;5091294;28;20110;-75
2022/03/11 06:52:41;;;;;;;15.05;8.10;;;;;;;-144.65;100.00;64500.88;5069749;28;20036;-74
2022/03/11 06:55:07;;;;;;;16.45;6.55;;;;;;;-144.65;100.00;64500.88;5070626;28;20029;-75
2022/03/11 06:57:34;;;;;;;18.83;8.05;;;;;;;-144.65;100.00;64500.88;5069932;28;20024;-74
2022/03/11 07:00:00;;;;;;;15.75;7.32;;;;;;;-144.65;100.00;64500.88;5070717;28;20024;-74
2022/03/11 07:02:25;;;;;;;33.05;14.23;;;;;;;-144.65;100.00;64500.88;5070556;28;20031;-75
2022/03/11 07:04:50;;;;;;;14.77;6.80;;;;;;;-144.65;100.00;64500.88;5070527;28;20028;-74
2022/03/11 07:07:16;;;;;;;35.20;13.48;;;;;;;-144.65;100.00;64500.88;5070676;28;20370;-74
2022/03/11 07:09:41;;;;;;;13.70;6.45;;;;;;;-144.65;100.00;64500.88;5070501;28;20047;-75
2022/03/11 07:12:07;;;;;;;21.77;10.93;;;;;;;-144.65;100.00;64500.88;5071240;28;20036;-74
2022/03/11 07:14:35;;;;;;;15.90;6.60;;;;;;;-144.65;100.00;64500.88;5071514;28;20032;-75
2022/03/11 07:17:10;;;;;;;19.83;7.93;;;;;;;-144.65;100.00;64500.88;5068924;28;20086;-75
2022/03/11 07:19:35;;;;;;;19.17;7.60;;;;;;;-144.65;100.00;64500.88;5070416;28;20388;-74
2022/03/11 07:22:04;;;;;;;14.63;7.20;;;;;;;-144.65;100.00;64500.88;5070490;28;20103;-74
2022/03/11 07:24:29;;;;;;;14.18;6.60;;;;;;;-144.65;100.00;64500.88;5070569;28;20119;-74
2022/03/11 07:26:55;;;;;;;16.13;7.50;;;;;;;-144.65;100.00;64500.88;5070441;28;20497;-74
2022/03/11 07:29:21;;;;;;;11.98;7.15;;;;;;;-144.65;100.00;64500.88;5070480;28;20028;-74
2022/03/11 07:31:46;;;;;;;17.88;7.60;;;;;;;-144.65;100.00;64500.88;5070629;28;20366;-74
2022/03/11 07:34:12;;;;;;;19.55;7.38;;;;;;;-144.65;100.00;64500.88;5070181;28;20117;-74
2022/03/11 07:36:38;;;;;;;15.43;7.15;;;;;;;-144.65;100.00;64500.88;5070653;28;20489;-74
2022/03/11 07:39:05;;;;;;;19.75;7.78;;;;;;;-144.65;100.00;64500.88;5068939;28;20024;-74
2022/03/11 07:41:31;;;;;;;14.30;7.35;;;;;;;-144.65;100.00;64500.88;5070968;28;20466;-73
2022/03/11 07:43:57;;;;;;;16.08;8.02;;;;;;;-144.65;100.00;64500.88;5070186;28;20058;-74
2022/03/11 07:46:23;;;;;;;19.08;7.78;;;;;;;-144.65;100.00;64500.88;5070368;28;20028;-74
2022/03/11 07:48:51;;;;;;;14.40;7.60;;;;;;;-144.65;100.00;64500.88;5070598;28;20446;-74
2022/03/11 07:51:18;;;;;;;23.33;8.02;;;;;;;-144.65;100.00;64500.88;5070455;28;20395;-74
2022/03/11 07:53:44;;;;;;;17.40;7.35;;;;;;;-144.65;100.00;64500.88;5070095;28;20051;-74
2022/03/11 07:56:10;;;;;;;14.98;8.20;;;;;;;-144.65;100.00;64500.88;5069046;28;20025;-74
2022/03/11 07:58:36;;;;;;;15.60;7.47;;;;;;;-144.65;100.00;64500.88;5070423;28;20029;-75
2022/03/11 08:01:04;;;;;;;15.00;7.25;;;;;;;-144.65;100.00;64500.88;5070556;28;20029;-74
2022/03/11 08:03:30;;;;;;;15.07;7.75;;;;;;;-144.65;100.00;64500.88;5068916;28;20031;-74
2022/03/11 08:05:55;;;;;;;15.93;7.32;;;;;;;-144.65;100.00;64500.88;5070455;28;20029;-74
2022/03/11 08:08:21;;;;;;;15.95;7.32;;;;;;;-144.65;100.00;64500.88;5070136;28;20021;-75
2022/03/11 08:10:46;;;;;;;19.88;7.53;;;;;;;-144.65;100.00;64500.88;5071007;28;20123;-73
2022/03/11 08:13:11;;;;;;;14.88;7.53;;;;;;;-144.65;100.00;64500.88;5071930;28;20123;-74
2022/03/11 08:15:37;;;;;;;16.85;6.68;;;;;;;-144.65;100.00;64500.88;5071521;28;20025;-74
2022/03/11 08:18:03;;;;;;;15.60;7.35;;;;;;;-144.65;100.00;64500.88;5070316;28;20036;-74
2022/03/11 08:20:29;;;;;;;13.77;6.63;;;;;;;-144.65;100.00;64500.88;5070260;28;20437;-74
2022/03/11 08:22:55;;;;;;;17.48;7.22;;;;;;;-144.65;100.00;64500.88;5068738;28;20024;-73
2022/03/11 08:25:26;;;;;;;13.75;6.60;;;;;;;-144.65;100.00;64500.88;5070491;28;20082;-74
2022/03/11 08:27:55;;;;;;;15.90;7.35;;;;;;;-144.65;100.00;64500.88;5071442;28;20403;-76
2022/03/11 08:30:22;;;;;;;13.70;6.63;;;;;;;-144.65;100.00;64500.88;5069842;28;20036;-74
2022/03/11 08:32:48;;;;;;;18.65;7.53;;;;;;;-144.65;100.00;64500.88;5070298;28;20073;-74
2022/03/11 08:35:14;;;;;;;15.63;8.02;;;;;;;-144.65;100.00;64500.88;5070190;28;20074;-76
2022/03/11 08:37:40;;;;;;;14.25;7.07;;;;;;;-144.65;100.00;64500.88;5070055;28;20029;-74
2022/03/11 08:40:07;;;;;;;19.15;8.98;;;;;;;-144.65;100.00;64500.88;5070039;28;20013;-76
2022/03/11 08:42:36;;;;;;;15.77;8.38;;;;;;;-144.65;100.00;64500.88;5070522;28;20029;-73
2022/03/11 08:45:06;;;;;;;16.80;7.72;;;;;;;-144.65;100.00;64500.88;5071250;28;20028;-74
2022/03/11 08:47:32;;;;;;;15.80;7.10;;;;;;;-144.65;100.00;64500.88;5072507;28;20545;-74
2022/03/11 08:49:58;;;;;;;14.40;7.15;;;;;;;-144.65;100.00;64500.88;5072380;28;20024;-75
2022/03/11 08:52:26;;;;;;;11.57;6.93;;;;;;;-144.65;100.00;64500.88;5073767;28;20440;-75
2022/03/11 08:54:52;;;;;;;17.70;7.30;;;;;;;-144.65;100.00;64500.88;5073389;28;20068;-75
2022/03/11 08:57:19;;;;;;;13.63;7.43;;;;;;;-144.65;100.00;64500.88;5073357;28;20035;-75
2022/03/11 08:59:45;;;;;;;14.32;7.65;;;;;;;-144.65;100.00;64500.88;5072632;28;20025;-74
2022/03/11 09:02:12;;;;;;;19.48;7.93;;;;;;;-144.65;100.00;64500.88;5074091;28;20037;-74
2022/03/11 09:04:38;;;;;;;14.93;7.75;;;;;;;-144.65;100.00;64500.88;5072173;28;20428;-74
2022/03/11 09:07:03;;;;;;;16.75;7.90;;;;;;;-144.65;100.00;64500.88;5073174;28;20031;-74
2022/03/11 09:09:30;;;;;;;18.08;7.03;;;;;;;-144.65;100.00;64500.88;5073056;28;20016;-73
2022/03/11 09:11:55;;;;;;;11.02;6.55;;;;;;;-144.65;100.00;64500.88;5073642;28;20028;-74
2022/03/11 09:14:21;;;;;;;14.43;7.38;;;;;;;-144.65;100.00;64500.88;5073516;28;20070;-73
2022/03/11 09:16:46;;;;;;;17.15;7.18;;;;;;;-144.65;100.00;64500.88;5072806;28;20485;-74
2022/03/11 09:19:13;;;;;;;15.57;7.25;;;;;;;-144.65;100.00;64500.88;5073195;28;20025;-74
2022/03/11 09:21:39;;;;;;;16.67;7.53;;;;;;;-144.65;100.00;64500.88;5072313;28;20023;-75
2022/03/11 09:24:04;;;;;;;15.23;7.50;;;;;;;-144.65;100.00;64500.88;5073550;28;20032;-75
2022/03/11 09:26:30;;;;;;;16.50;7.82;;;;;;;-144.65;100.00;64500.88;5071959;28;20030;-75
2022/03/11 09:28:55;;;;;;;14.82;7.30;;;;;;;-144.65;100.00;64500.88;5073335;28;20858;-74
2022/03/11 09:31:21;;;;;;;19.08;7.80;;;;;;;-144.65;100.00;64500.88;5071989;28;20032;-75
2022/03/11 09:33:46;;;;;;;17.50;8.20;;;;;;;-144.65;100.00;64500.88;5073458;28;20041;-74
2022/03/11 09:36:12;;;;;;;16.20;7.15;;;;;;;-144.65;100.00;64500.88;5073238;28;20024;-74
2022/03/11 09:38:38;;;;;;;17.40;7.50;;;;;;;-144.65;100.00;64500.88;5073433;28;20024;-74
2022/03/11 09:41:05;;;;;;;15.23;7.78;;;;;;;-144.65;100.00;64500.88;5073021;28;20024;-74
2022/03/11 09:43:30;;;;;;;15.60;7.90;;;;;;;-144.65;100.00;64500.88;5073294;28;20024;-75
2022/03/11 09:45:57;;;;;;;15.07;7.97;;;;;;;-144.65;100.00;64500.88;5072823;28;20035;-76
2022/03/11 09:48:23;;;;;;;15.65;8.43;;;;;;;-144.65;100.00;64500.88;5073066;28;20067;-74
2022/03/11 09:50:49;;;;;;;23.35;8.45;;;;;;;-144.65;100.00;64500.88;5072492;28;20052;-74
2022/03/11 09:53:15;;;;;;;13.65;7.57;;;;;;;-144.65;100.00;64500.88;5072795;28;20103;-74
2022/03/11 09:55:41;;;;;;;13.48;8.00;;;;;;;-144.65;100.00;64500.88;5071418;28;20463;-73
2022/03/11 09:58:07;;;;;;;17.15;7.70;;;;;;;-144.65;100.00;64500.88;5072592;28;20023;-76
2022/03/11 10:00:34;;;;;;;14.75;8.95;;;;;;;-144.65;100.00;64500.88;5072356;28;20105;-73
2022/03/11 10:02:59;;;;;;;14.88;8.15;;;;;;;-144.65;100.00;64500.88;5072489;28;20032;-74
2022/03/11 10:05:43;;;;;;;13.65;8.43;;;;;;;-144.65;100.00;64500.88;5072333;28;20028;-74
2022/03/11 10:08:08;;;;;;;14.63;8.60;;;;;;;-144.65;100.00;64500.88;5072360;28;20040;-76
2022/03/11 10:10:35;;;;;;;13.65;8.18;;;;;;;-144.65;100.00;64500.88;5072499;28;20504;-74
2022/03/11 10:13:01;;;;;;;16.27;8.52;;;;;;;-144.65;100.00;64500.88;5072962;28;20029;-74
2022/03/11 10:15:28;;;;;;;14.40;7.70;;;;;;;-144.65;100.00;64500.88;5071140;28;20078;-74
2022/03/11 10:17:54;;;;;;;17.50;8.75;;;;;;;-144.65;100.00;64500.88;5073250;28;20040;-75
2022/03/11 10:20:21;;;;;;;23.67;8.60;;;;;;;-144.65;100.00;64500.88;5074175;28;20050;-74
2022/03/11 10:22:46;;;;;;;14.80;8.50;;;;;;;-144.65;100.00;64500.88;5074542;28;20106;-77
2022/03/11 10:25:18;;;;;;;14.85;8.20;;;;;;;-144.65;100.00;64500.88;5076487;28;20032;-74
2022/03/11 10:27:56;;;;;;;16.00;9.13;;;;;;;-144.65;100.00;64500.88;5077794;28;20024;-74
2022/03/11 10:30:22;;;;;;;12.75;8.18;;;;;;;-144.65;100.00;64500.88;5073149;28;20029;-73
2022/03/11 10:32:52;;;;;;;16.85;8.98;;;;;;;-144.65;100.00;64500.88;5072221;28;20066;-74
2022/03/11 10:35:21;;;;;;;16.25;9.23;;;;;;;-144.65;100.00;64500.88;5071526;28;20120;-74
2022/03/11 10:37:59;;;;;;;17.42;8.85;;;;;;;-144.65;100.00;64500.88;5071733;28;20107;-74
2022/03/11 10:40:25;;;;;;;15.32;8.27;;;;;;;-144.65;100.00;64500.88;5071838;28;20055;-74
2022/03/11 10:43:08;;;;;;;17.15;9.13;;;;;;;-144.65;100.00;64500.88;5070646;28;20507;-74
2022/03/11 10:46:03;;;;;;;15.52;9.45;;;;;;;-144.65;100.00;64500.88;5069966;28;20031;-74
2022/03/11 10:48:47;;;;;;;20.88;9.05;;;;;;;-144.65;100.00;64500.88;5086631;28;20032;-73
2022/03/11 10:51:25;;;;;;;17.35;9.15;;;;;;;-144.65;100.00;64500.88;5071651;28;20064;-73
2022/03/11 10:53:50;;;;;;;14.15;8.80;;;;;;;-144.65;100.00;64500.88;5071256;28;20413;-74
2022/03/11 10:56:29;;;;;;;23.75;9.07;;;;;;;-144.65;100.00;64500.88;5069885;28;20044;-74